JNA271 RJFF-RKSI
Flight info
| Callsign | JNA271 |
|---|---|
| Flight time | 0h 57m |
| Altitude | 38000 |
| Route | DGC G339 BEETL Y208 INVOK Z91 PSN Y782 BITUX Z53 BASEM Y685 GUKDO GUKDO2E |
| Aircraft | B772/H-SDE2E3FGHIJ5LORVWXY/LB1D1 |
Departure
| Time | 2026-04-30 08:37 |
|---|---|
| Airport | Fukuoka Airport (RJFF) |
Arrival
| Time | 2026-04-30 09:35 |
|---|---|
| Airport | Incheon International Airport (RKSI) |
| Time | Latitude | Longitude | Altitude | Speed | Heading |
|---|---|---|---|---|---|
| 2026-04-30 08:27 | 33.58758 | 130.44389 | 35 ft | 0 kts | 240° |
| 2026-04-30 08:30 | 33.58762 | 130.44398 | 35 ft | 4 kts | 243° |
| 2026-04-30 08:31 | 33.58773 | 130.44427 | 34 ft | 4 kts | 251° |
| 2026-04-30 08:31 | 33.58780 | 130.44458 | 34 ft | 4 kts | 260° |
| 2026-04-30 08:31 | 33.58783 | 130.44490 | 36 ft | 4 kts | 270° |
| 2026-04-30 08:31 | 33.58781 | 130.44522 | 36 ft | 4 kts | 283° |
| 2026-04-30 08:32 | 33.58772 | 130.44552 | 35 ft | 4 kts | 305° |
| 2026-04-30 08:32 | 33.58760 | 130.44567 | 35 ft | 0 kts | 330° |
| 2026-04-30 08:34 | 33.58776 | 130.44558 | 35 ft | 13 kts | 333° |
| 2026-04-30 08:34 | 33.58847 | 130.44512 | 37 ft | 0 kts | 332° |
| 2026-04-30 08:35 | 33.58871 | 130.44497 | 37 ft | 16 kts | 332° |
| 2026-04-30 08:35 | 33.59002 | 130.44411 | 34 ft | 23 kts | 330° |
| 2026-04-30 08:35 | 33.59146 | 130.44312 | 33 ft | 31 kts | 332° |
| 2026-04-30 08:35 | 33.59402 | 130.44145 | 34 ft | 42 kts | 330° |
| 2026-04-30 08:36 | 33.59610 | 130.44106 | 30 ft | 26 kts | 60° |
| 2026-04-30 08:36 | 33.59667 | 130.44294 | 29 ft | 16 kts | 90° |
| 2026-04-30 08:36 | 33.59595 | 130.44385 | 30 ft | 15 kts | 149° |
| 2026-04-30 08:36 | 33.59589 | 130.44389 | 30 ft | 0 kts | 149° |
| 2026-04-30 08:37 | 33.59495 | 130.44455 | 29 ft | 37 kts | 149° |
| 2026-04-30 08:37 | 33.59058 | 130.44761 | 32 ft | 110 kts | 148° |
| 2026-04-30 08:37 | 33.58195 | 130.45332 | 153 ft | 165 kts | 148° |
| 2026-04-30 08:37 | 33.57121 | 130.46058 | 1053 ft | 186 kts | 146° |
| 2026-04-30 08:38 | 33.56058 | 130.47015 | 2048 ft | 189 kts | 141° |
| 2026-04-30 08:38 | 33.54905 | 130.47843 | 2517 ft | 204 kts | 153° |
| 2026-04-30 08:38 | 33.53524 | 130.48580 | 2748 ft | 229 kts | 155° |
| 2026-04-30 08:38 | 33.52014 | 130.49390 | 3237 ft | 242 kts | 155° |
| 2026-04-30 08:39 | 33.50453 | 130.50262 | 3863 ft | 252 kts | 154° |
| 2026-04-30 08:39 | 33.48864 | 130.51205 | 4529 ft | 260 kts | 155° |
| 2026-04-30 08:39 | 33.47191 | 130.52182 | 4403 ft | 270 kts | 155° |
| 2026-04-30 08:39 | 33.45544 | 130.53149 | 4577 ft | 256 kts | 155° |
| 2026-04-30 08:40 | 33.43979 | 130.54092 | 5102 ft | 251 kts | 154° |
| 2026-04-30 08:40 | 33.42447 | 130.55016 | 6093 ft | 240 kts | 155° |
| 2026-04-30 08:40 | 33.41014 | 130.55881 | 7145 ft | 220 kts | 155° |
| 2026-04-30 08:40 | 33.39626 | 130.56721 | 7592 ft | 233 kts | 155° |
| 2026-04-30 08:41 | 33.38131 | 130.57620 | 7761 ft | 252 kts | 157° |
| 2026-04-30 08:41 | 33.36397 | 130.58112 | 7958 ft | 264 kts | 186° |
| 2026-04-30 08:41 | 33.34684 | 130.57385 | 8625 ft | 266 kts | 216° |
| 2026-04-30 08:41 | 33.33513 | 130.55685 | 9404 ft | 267 kts | 239° |
| 2026-04-30 08:42 | 33.32660 | 130.53685 | 10024 ft | 274 kts | 241° |
| 2026-04-30 08:42 | 33.31834 | 130.51594 | 10453 ft | 288 kts | 249° |
| 2026-04-30 08:42 | 33.31651 | 130.49091 | 10706 ft | 321 kts | 276° |
| 2026-04-30 08:42 | 33.32482 | 130.46549 | 11415 ft | 338 kts | 297° |
| 2026-04-30 08:43 | 33.33944 | 130.44300 | 12067 ft | 352 kts | 312° |
| 2026-04-30 08:43 | 33.36081 | 130.42749 | 13001 ft | 370 kts | 336° |
| 2026-04-30 08:43 | 33.38637 | 130.42164 | 13954 ft | 378 kts | 349° |
| 2026-04-30 08:43 | 33.41287 | 130.41868 | 14688 ft | 387 kts | 350° |
| 2026-04-30 08:44 | 33.43990 | 130.41596 | 15570 ft | 392 kts | 350° |
| 2026-04-30 08:44 | 33.46717 | 130.41324 | 16467 ft | 395 kts | 349° |
| 2026-04-30 08:44 | 33.49472 | 130.41041 | 17332 ft | 400 kts | 349° |
| 2026-04-30 08:44 | 33.52255 | 130.40741 | 18127 ft | 405 kts | 348° |
| 2026-04-30 08:45 | 33.55087 | 130.40421 | 18799 ft | 411 kts | 348° |
| 2026-04-30 08:45 | 33.57961 | 130.40099 | 19440 ft | 419 kts | 348° |
| 2026-04-30 08:45 | 33.60886 | 130.39767 | 20081 ft | 425 kts | 348° |
| 2026-04-30 08:45 | 33.63850 | 130.39427 | 20757 ft | 431 kts | 347° |
| 2026-04-30 08:46 | 33.66805 | 130.38915 | 21299 ft | 426 kts | 336° |
| 2026-04-30 08:46 | 33.69436 | 130.37428 | 21810 ft | 413 kts | 315° |
| 2026-04-30 08:46 | 33.71644 | 130.35276 | 22380 ft | 412 kts | 311° |
| 2026-04-30 08:46 | 33.73879 | 130.33076 | 23084 ft | 418 kts | 311° |
| 2026-04-30 08:47 | 33.76162 | 130.30872 | 23819 ft | 422 kts | 311° |
| 2026-04-30 08:47 | 33.78431 | 130.28701 | 24536 ft | 424 kts | 311° |
| 2026-04-30 08:47 | 33.80782 | 130.26459 | 25256 ft | 427 kts | 311° |
| 2026-04-30 08:47 | 33.83093 | 130.24257 | 25950 ft | 431 kts | 311° |
| 2026-04-30 08:48 | 33.85453 | 130.22007 | 26581 ft | 434 kts | 311° |
| 2026-04-30 08:48 | 33.87830 | 130.19740 | 27187 ft | 438 kts | 311° |
| 2026-04-30 08:48 | 33.90227 | 130.17451 | 27750 ft | 442 kts | 311° |
| 2026-04-30 08:48 | 33.92648 | 130.15137 | 28322 ft | 446 kts | 311° |
| 2026-04-30 08:49 | 33.95090 | 130.12799 | 28753 ft | 452 kts | 311° |
| 2026-04-30 08:49 | 33.97568 | 130.10426 | 29221 ft | 457 kts | 311° |
| 2026-04-30 08:49 | 34.00070 | 130.08030 | 29739 ft | 460 kts | 311° |
| 2026-04-30 08:49 | 34.02582 | 130.05624 | 30223 ft | 463 kts | 311° |
| 2026-04-30 08:50 | 34.05110 | 130.03203 | 30717 ft | 464 kts | 311° |
| 2026-04-30 08:50 | 34.07639 | 130.00779 | 31240 ft | 464 kts | 310° |
| 2026-04-30 08:50 | 34.10171 | 129.98348 | 31690 ft | 465 kts | 310° |
| 2026-04-30 08:50 | 34.12709 | 129.95907 | 32134 ft | 466 kts | 309° |
| 2026-04-30 08:51 | 34.15244 | 129.93467 | 32567 ft | 467 kts | 309° |
| 2026-04-30 08:51 | 34.17796 | 129.91008 | 32946 ft | 469 kts | 309° |
| 2026-04-30 08:51 | 34.20349 | 129.88546 | 33300 ft | 471 kts | 309° |
| 2026-04-30 08:51 | 34.22881 | 129.86105 | 33688 ft | 471 kts | 308° |
| 2026-04-30 08:52 | 34.25434 | 129.83646 | 34217 ft | 467 kts | 308° |
| 2026-04-30 08:52 | 34.27969 | 129.81210 | 34685 ft | 464 kts | 308° |
| 2026-04-30 08:52 | 34.30497 | 129.78798 | 35125 ft | 463 kts | 308° |
| 2026-04-30 08:52 | 34.33027 | 129.76390 | 35484 ft | 462 kts | 308° |
| 2026-04-30 08:53 | 34.35557 | 129.73980 | 35833 ft | 462 kts | 308° |
| 2026-04-30 08:53 | 34.38075 | 129.71578 | 36187 ft | 461 kts | 307° |
| 2026-04-30 08:53 | 34.40592 | 129.69175 | 36553 ft | 459 kts | 307° |
| 2026-04-30 08:53 | 34.43096 | 129.66781 | 36924 ft | 458 kts | 307° |
| 2026-04-30 08:54 | 34.45594 | 129.64389 | 37279 ft | 457 kts | 307° |
| 2026-04-30 08:54 | 34.48084 | 129.62002 | 37630 ft | 456 kts | 307° |
| 2026-04-30 08:54 | 34.50565 | 129.59620 | 37880 ft | 457 kts | 306° |
| 2026-04-30 08:55 | 34.55572 | 129.54804 | 37937 ft | 458 kts | 306° |
| 2026-04-30 08:55 | 34.60537 | 129.50036 | 37941 ft | 454 kts | 306° |
| 2026-04-30 08:56 | 34.65483 | 129.45270 | 37940 ft | 453 kts | 306° |
| 2026-04-30 08:56 | 34.70417 | 129.40504 | 37948 ft | 453 kts | 306° |
| 2026-04-30 08:57 | 34.75327 | 129.35759 | 37936 ft | 454 kts | 306° |
| 2026-04-30 08:57 | 34.80280 | 129.30964 | 37944 ft | 456 kts | 306° |
| 2026-04-30 08:58 | 34.85257 | 129.26156 | 37948 ft | 457 kts | 306° |
| 2026-04-30 08:58 | 34.90243 | 129.21336 | 37959 ft | 458 kts | 306° |
| 2026-04-30 08:59 | 34.95244 | 129.16490 | 37946 ft | 459 kts | 306° |
| 2026-04-30 08:59 | 35.00241 | 129.11641 | 37998 ft | 459 kts | 307° |
| 2026-04-30 09:00 | 35.05253 | 129.06766 | 37956 ft | 461 kts | 307° |
| 2026-04-30 09:00 | 35.10279 | 129.01891 | 37951 ft | 464 kts | 308° |
| 2026-04-30 09:00 | 35.12976 | 128.99619 | 37950 ft | 475 kts | 313° |
| 2026-04-30 09:01 | 35.15856 | 128.97659 | 37965 ft | 487 kts | 319° |
| 2026-04-30 09:01 | 35.22005 | 128.94077 | 37969 ft | 491 kts | 321° |
| 2026-04-30 09:02 | 35.31258 | 128.88709 | 38006 ft | 490 kts | 321° |
| 2026-04-30 09:02 | 35.37404 | 128.85071 | 37963 ft | 491 kts | 321° |
| 2026-04-30 09:03 | 35.43541 | 128.81421 | 37947 ft | 490 kts | 321° |
| 2026-04-30 09:03 | 35.49687 | 128.77767 | 37958 ft | 490 kts | 322° |
| 2026-04-30 09:04 | 35.54794 | 128.74739 | 37948 ft | 489 kts | 322° |
| 2026-04-30 09:04 | 35.60916 | 128.71094 | 37955 ft | 489 kts | 322° |
| 2026-04-30 09:05 | 35.67052 | 128.67439 | 37949 ft | 490 kts | 322° |
| 2026-04-30 09:05 | 35.73191 | 128.63765 | 37967 ft | 492 kts | 323° |
| 2026-04-30 09:06 | 35.79254 | 128.59916 | 37960 ft | 483 kts | 316° |
| 2026-04-30 09:06 | 35.85296 | 128.54156 | 37946 ft | 464 kts | 305° |
| 2026-04-30 09:07 | 35.89173 | 128.49504 | 37947 ft | 463 kts | 304° |
| 2026-04-30 09:07 | 35.93746 | 128.43980 | 37951 ft | 463 kts | 304° |
| 2026-04-30 09:08 | 35.98374 | 128.38432 | 37927 ft | 464 kts | 304° |
| 2026-04-30 09:08 | 36.03019 | 128.32883 | 37934 ft | 464 kts | 305° |
| 2026-04-30 09:09 | 36.07657 | 128.27335 | 37947 ft | 464 kts | 305° |
| 2026-04-30 09:09 | 36.12276 | 128.21809 | 37924 ft | 455 kts | 305° |
| 2026-04-30 09:10 | 36.16787 | 128.16397 | 37942 ft | 451 kts | 305° |
| 2026-04-30 09:10 | 36.21297 | 128.10958 | 37938 ft | 454 kts | 305° |
| 2026-04-30 09:11 | 36.25965 | 128.05624 | 37922 ft | 466 kts | 315° |
| 2026-04-30 09:11 | 36.28830 | 128.03611 | 37926 ft | 483 kts | 327° |
| 2026-04-30 09:11 | 36.32065 | 128.02261 | 37928 ft | 500 kts | 339° |
| 2026-04-30 09:12 | 36.39092 | 128.01251 | 37933 ft | 511 kts | 347° |
| 2026-04-30 09:12 | 36.46122 | 128.00474 | 37931 ft | 510 kts | 346° |
| 2026-04-30 09:13 | 36.53173 | 127.99515 | 37911 ft | 509 kts | 345° |
| 2026-04-30 09:13 | 36.60190 | 127.98530 | 37367 ft | 510 kts | 346° |
| 2026-04-30 09:14 | 36.63725 | 127.98060 | 36718 ft | 510 kts | 346° |
| 2026-04-30 09:14 | 36.67259 | 127.97598 | 36120 ft | 510 kts | 346° |
| 2026-04-30 09:14 | 36.70797 | 127.97131 | 35505 ft | 510 kts | 346° |
| 2026-04-30 09:14 | 36.74320 | 127.96658 | 34928 ft | 510 kts | 347° |
| 2026-04-30 09:15 | 36.77853 | 127.96181 | 34348 ft | 510 kts | 347° |
| 2026-04-30 09:15 | 36.81281 | 127.95366 | 33753 ft | 493 kts | 333° |
| 2026-04-30 09:15 | 36.84288 | 127.93528 | 33088 ft | 474 kts | 317° |
| 2026-04-30 09:15 | 36.86787 | 127.90962 | 32451 ft | 456 kts | 304° |
| 2026-04-30 09:16 | 36.88580 | 127.87821 | 31801 ft | 435 kts | 288° |
| 2026-04-30 09:16 | 36.89862 | 127.84432 | 31216 ft | 430 kts | 286° |
| 2026-04-30 09:16 | 36.91355 | 127.81182 | 30582 ft | 440 kts | 298° |
| 2026-04-30 09:16 | 36.93334 | 127.78227 | 30013 ft | 443 kts | 301° |
| 2026-04-30 09:17 | 36.95345 | 127.75301 | 29320 ft | 441 kts | 301° |
| 2026-04-30 09:17 | 36.97237 | 127.72378 | 28639 ft | 436 kts | 298° |
| 2026-04-30 09:17 | 36.99029 | 127.69346 | 28130 ft | 429 kts | 297° |
| 2026-04-30 09:17 | 37.00720 | 127.66341 | 27943 ft | 416 kts | 296° |
| 2026-04-30 09:18 | 37.02352 | 127.63419 | 27861 ft | 403 kts | 295° |
| 2026-04-30 09:18 | 37.03945 | 127.60545 | 27398 ft | 401 kts | 295° |
| 2026-04-30 09:18 | 37.05527 | 127.57687 | 26936 ft | 398 kts | 296° |
| 2026-04-30 09:18 | 37.07101 | 127.54848 | 26478 ft | 395 kts | 296° |
| 2026-04-30 09:19 | 37.08664 | 127.52027 | 26017 ft | 393 kts | 296° |
| 2026-04-30 09:19 | 37.10220 | 127.49222 | 25574 ft | 391 kts | 296° |
| 2026-04-30 09:19 | 37.11771 | 127.46427 | 25160 ft | 390 kts | 297° |
| 2026-04-30 09:19 | 37.13314 | 127.43641 | 24695 ft | 389 kts | 297° |
| 2026-04-30 09:20 | 37.14856 | 127.40865 | 24255 ft | 388 kts | 297° |
| 2026-04-30 09:20 | 37.16401 | 127.38086 | 23810 ft | 387 kts | 298° |
| 2026-04-30 09:20 | 37.17939 | 127.35317 | 23339 ft | 387 kts | 298° |
| 2026-04-30 09:20 | 37.19474 | 127.32552 | 22843 ft | 386 kts | 298° |
| 2026-04-30 09:21 | 37.21003 | 127.29795 | 22384 ft | 384 kts | 298° |
| 2026-04-30 09:21 | 37.22521 | 127.27054 | 21942 ft | 382 kts | 299° |
| 2026-04-30 09:21 | 37.24034 | 127.24321 | 21495 ft | 380 kts | 299° |
| 2026-04-30 09:21 | 37.25540 | 127.21597 | 21069 ft | 379 kts | 299° |
| 2026-04-30 09:22 | 37.26792 | 127.18784 | 20615 ft | 363 kts | 283° |
| 2026-04-30 09:22 | 37.27200 | 127.15732 | 20156 ft | 349 kts | 265° |
| 2026-04-30 09:22 | 37.27150 | 127.12703 | 19725 ft | 346 kts | 262° |
| 2026-04-30 09:22 | 37.27023 | 127.09689 | 19269 ft | 347 kts | 262° |
| 2026-04-30 09:23 | 37.26944 | 127.06654 | 18816 ft | 349 kts | 265° |
| 2026-04-30 09:23 | 37.26994 | 127.03609 | 18558 ft | 345 kts | 267° |
| 2026-04-30 09:23 | 37.27083 | 127.00645 | 18403 ft | 336 kts | 266° |
| 2026-04-30 09:23 | 37.27124 | 126.97755 | 18256 ft | 326 kts | 265° |
| 2026-04-30 09:24 | 37.27136 | 126.94945 | 18099 ft | 317 kts | 265° |
| 2026-04-30 09:24 | 37.27262 | 126.92241 | 17922 ft | 308 kts | 278° |
| 2026-04-30 09:24 | 37.28130 | 126.89769 | 17506 ft | 311 kts | 296° |
| 2026-04-30 09:24 | 37.28973 | 126.87303 | 16613 ft | 311 kts | 274° |
| 2026-04-30 09:25 | 37.28809 | 126.84632 | 15674 ft | 311 kts | 246° |
| 2026-04-30 09:25 | 37.27777 | 126.82368 | 15295 ft | 281 kts | 227° |
| 2026-04-30 09:25 | 37.26446 | 126.80763 | 14781 ft | 263 kts | 214° |
| 2026-04-30 09:25 | 37.24911 | 126.79505 | 13846 ft | 266 kts | 210° |
| 2026-04-30 09:26 | 37.23278 | 126.78261 | 12488 ft | 282 kts | 210° |
| 2026-04-30 09:26 | 37.21605 | 126.76965 | 11852 ft | 282 kts | 210° |
| 2026-04-30 09:26 | 37.19918 | 126.75640 | 11817 ft | 281 kts | 211° |
| 2026-04-30 09:26 | 37.18544 | 126.74026 | 11489 ft | 267 kts | 236° |
| 2026-04-30 09:27 | 37.17894 | 126.71861 | 10675 ft | 270 kts | 261° |
| 2026-04-30 09:27 | 37.17922 | 126.69457 | 9484 ft | 284 kts | 278° |
| 2026-04-30 09:27 | 37.18631 | 126.67107 | 8207 ft | 295 kts | 307° |
| 2026-04-30 09:27 | 37.20166 | 126.65458 | 7375 ft | 287 kts | 328° |
| 2026-04-30 09:28 | 37.21771 | 126.64134 | 6933 ft | 262 kts | 326° |
| 2026-04-30 09:28 | 37.23203 | 126.62888 | 6483 ft | 240 kts | 326° |
| 2026-04-30 09:28 | 37.24544 | 126.61715 | 5960 ft | 232 kts | 327° |
| 2026-04-30 09:28 | 37.25868 | 126.60572 | 5338 ft | 228 kts | 326° |
| 2026-04-30 09:29 | 37.27141 | 126.59457 | 4397 ft | 226 kts | 326° |
| 2026-04-30 09:29 | 37.28418 | 126.58327 | 3786 ft | 211 kts | 324° |
| 2026-04-30 09:29 | 37.29562 | 126.57310 | 3546 ft | 192 kts | 324° |
| 2026-04-30 09:29 | 37.30609 | 126.56382 | 3356 ft | 179 kts | 324° |
| 2026-04-30 09:30 | 37.31596 | 126.55504 | 3124 ft | 168 kts | 324° |
| 2026-04-30 09:30 | 37.32527 | 126.54679 | 2881 ft | 158 kts | 323° |
| 2026-04-30 09:30 | 37.33382 | 126.53920 | 2690 ft | 144 kts | 323° |
| 2026-04-30 09:30 | 37.34166 | 126.53223 | 2515 ft | 135 kts | 322° |
| 2026-04-30 09:31 | 37.34908 | 126.52562 | 2313 ft | 127 kts | 323° |
| 2026-04-30 09:31 | 37.35631 | 126.51919 | 2150 ft | 127 kts | 323° |
| 2026-04-30 09:31 | 37.36378 | 126.51255 | 1991 ft | 134 kts | 323° |
| 2026-04-30 09:31 | 37.37143 | 126.50575 | 1805 ft | 135 kts | 322° |
| 2026-04-30 09:32 | 37.37918 | 126.49885 | 1615 ft | 139 kts | 322° |
| 2026-04-30 09:32 | 37.38708 | 126.49183 | 1430 ft | 138 kts | 322° |
| 2026-04-30 09:32 | 37.39478 | 126.48499 | 1241 ft | 134 kts | 322° |
| 2026-04-30 09:32 | 37.40209 | 126.47848 | 1047 ft | 124 kts | 321° |
| 2026-04-30 09:33 | 37.40897 | 126.47235 | 886 ft | 119 kts | 321° |
| 2026-04-30 09:33 | 37.41593 | 126.46614 | 736 ft | 125 kts | 320° |
| 2026-04-30 09:33 | 37.42305 | 126.45978 | 576 ft | 126 kts | 321° |
| 2026-04-30 09:33 | 37.43001 | 126.45369 | 370 ft | 117 kts | 321° |
| 2026-04-30 09:34 | 37.43688 | 126.44750 | 235 ft | 125 kts | 322° |
| 2026-04-30 09:34 | 37.44391 | 126.44141 | 65 ft | 119 kts | 321° |
| 2026-04-30 09:34 | 37.45021 | 126.43567 | 37 ft | 101 kts | 324° |
| 2026-04-30 09:34 | 37.45472 | 126.43162 | 37 ft | 57 kts | 326° |
| 2026-04-30 09:35 | 37.45673 | 126.42992 | 37 ft | 13 kts | 327° |
| 2026-04-30 09:35 | 37.45730 | 126.42992 | 37 ft | 19 kts | 28° |
| 2026-04-30 09:35 | 37.45815 | 126.43177 | 37 ft | 24 kts | 80° |
| 2026-04-30 09:35 | 37.45923 | 126.43395 | 37 ft | 37 kts | 47° |
| 2026-04-30 09:36 | 37.46078 | 126.43666 | 37 ft | 24 kts | 55° |
| 2026-04-30 09:36 | 37.46217 | 126.43675 | 37 ft | 23 kts | 326° |
| 2026-04-30 09:36 | 37.46336 | 126.43566 | 37 ft | 20 kts | 325° |
| 2026-04-30 09:36 | 37.46439 | 126.43483 | 37 ft | 14 kts | 334° |
| 2026-04-30 09:37 | 37.46514 | 126.43525 | 37 ft | 7 kts | 52° |
| 2026-04-30 09:37 | 37.46558 | 126.43546 | 37 ft | 7 kts | 359° |
| 2026-04-30 09:37 | 37.46576 | 126.43527 | 37 ft | 3 kts | 315° |
| 2026-04-30 09:37 | 37.46591 | 126.43510 | 37 ft | 3 kts | 320° |
| 2026-04-30 09:38 | 37.46607 | 126.43496 | 37 ft | 1 kts | 323° |
| 2026-04-30 09:38 | 37.46610 | 126.43492 | 37 ft | 0 kts | 323° |